Time;durP1;ratioP1;P1;durP2;ratioP2;P2;SDS_P1;SDS_P2;PMS_P1;PMS_P2;Temp;Humidity;BMP_temperature;BMP_pressure;BME280_temperature;BME280_humidity;BME280_pressure;Samples;Min_cycle;Max_cycle;Signal;HPM_P1;HPM_P2
2023/11/06 00:00:08;;;;;;;0.40;0.40;;;11.00;99.90;;;;;;4405791;32;20073;-61
2023/11/06 00:02:33;;;;;;;0.30;0.30;;;11.00;99.90;;;;;;4408368;32;20062;-61
2023/11/06 00:04:59;;;;;;;1.35;0.47;;;10.90;99.90;;;;;;4408242;32;20118;-61
2023/11/06 00:07:24;;;;;;;0.37;0.37;;;11.00;99.90;;;;;;4407244;32;20065;-59
2023/11/06 00:09:50;;;;;;;0.40;0.40;;;11.00;99.90;;;;;;4408527;32;20546;-59
2023/11/06 00:12:16;;;;;;;0.20;0.20;;;11.00;99.90;;;;;;4405845;32;20067;-61
2023/11/06 00:14:41;;;;;;;0.57;0.57;;;11.00;99.90;;;;;;4405590;32;20188;-61
2023/11/06 00:17:07;;;;;;;0.30;0.30;;;11.10;99.90;;;;;;4402237;32;20065;-60
2023/11/06 00:19:32;;;;;;;0.55;0.55;;;11.10;99.90;;;;;;4406289;32;20509;-59
2023/11/06 00:21:58;;;;;;;0.47;0.47;;;11.00;99.90;;;;;;4406259;32;20089;-61
2023/11/06 00:24:23;;;;;;;1.05;0.52;;;11.00;99.90;;;;;;4406197;32;20066;-61
2023/11/06 00:26:49;;;;;;;0.40;0.40;;;10.90;99.90;;;;;;4406275;32;20093;-60
2023/11/06 00:29:14;;;;;;;0.43;0.43;;;10.90;99.90;;;;;;4405221;32;20150;-59
2023/11/06 00:31:40;;;;;;;0.62;0.60;;;10.80;99.90;;;;;;4407150;32;20565;-60
2023/11/06 00:34:06;;;;;;;0.37;0.37;;;10.80;99.90;;;;;;4407080;32;20582;-61
2023/11/06 00:36:32;;;;;;;0.95;0.88;;;10.90;99.90;;;;;;4399821;32;20366;-60
2023/11/06 00:38:57;;;;;;;0.30;0.30;;;10.90;99.90;;;;;;4402498;32;20137;-60
2023/11/06 00:41:23;;;;;;;1.12;1.02;;;10.90;99.90;;;;;;4405913;32;20423;-60
2023/11/06 00:43:48;;;;;;;0.40;0.40;;;10.90;99.90;;;;;;4402865;32;20061;-60
2023/11/06 00:46:14;;;;;;;0.20;0.20;;;10.80;99.90;;;;;;4405576;32;20541;-59
2023/11/06 00:48:39;;;;;;;0.30;0.30;;;10.80;99.90;;;;;;4405911;32;20140;-60
2023/11/06 00:51:05;;;;;;;0.28;0.28;;;10.90;99.90;;;;;;4405848;32;20379;-60
2023/11/06 00:53:30;;;;;;;0.20;0.20;;;10.90;99.90;;;;;;4404494;32;20097;-60
2023/11/06 00:55:56;;;;;;;0.37;0.37;;;10.90;99.90;;;;;;4405824;32;20090;-60
2023/11/06 00:58:21;;;;;;;0.70;0.40;;;10.90;99.90;;;;;;4384635;32;20094;-62
2023/11/06 01:00:47;;;;;;;0.82;0.82;;;10.90;99.90;;;;;;4405421;32;21113;-61
2023/11/06 01:03:13;;;;;;;0.40;0.40;;;10.90;99.90;;;;;;4402980;32;20077;-60
2023/11/06 01:05:39;;;;;;;0.30;0.30;;;10.90;99.90;;;;;;4406374;32;20077;-60
2023/11/06 01:08:05;;;;;;;0.40;0.40;;;10.90;99.90;;;;;;4404226;32;20129;-60
2023/11/06 01:10:31;;;;;;;0.32;0.32;;;10.90;99.90;;;;;;4405100;32;20537;-59
2023/11/06 01:12:59;;;;;;;0.30;0.30;;;10.90;99.90;;;;;;4405503;32;20078;-58
2023/11/06 01:15:25;;;;;;;1.05;0.93;;;10.90;99.90;;;;;;4404836;32;20150;-59
2023/11/06 01:17:51;;;;;;;1.30;0.77;;;10.90;99.90;;;;;;4400483;32;20134;-60
2023/11/06 01:20:16;;;;;;;0.30;0.30;;;10.90;99.90;;;;;;4405429;32;20081;-60
2023/11/06 01:22:42;;;;;;;0.20;0.20;;;10.80;99.90;;;;;;4406755;32;20696;-60
2023/11/06 01:25:08;;;;;;;0.85;0.50;;;10.80;99.90;;;;;;4407680;32;20074;-61
2023/11/06 01:27:33;;;;;;;0.35;0.35;;;10.80;99.90;;;;;;4404164;32;20096;-61
2023/11/06 01:29:59;;;;;;;0.30;0.30;;;10.80;99.90;;;;;;4405392;32;20063;-60
2023/11/06 01:32:25;;;;;;;0.30;0.30;;;10.80;99.90;;;;;;4405260;32;20082;-62
2023/11/06 01:34:50;;;;;;;0.30;0.30;;;10.80;99.90;;;;;;4403985;32;20072;-61
2023/11/06 01:37:16;;;;;;;0.20;0.20;;;10.80;99.90;;;;;;4396678;32;20093;-59
2023/11/06 01:39:41;;;;;;;0.20;0.20;;;10.80;99.90;;;;;;4403238;32;20477;-61
2023/11/06 01:42:06;;;;;;;0.40;0.40;;;10.80;99.90;;;;;;4405777;32;20069;-60
2023/11/06 01:44:32;;;;;;;0.30;0.30;;;10.80;99.90;;;;;;4404402;32;20069;-61
2023/11/06 01:46:58;;;;;;;0.30;0.30;;;10.80;99.90;;;;;;4404382;32;20743;-60
2023/11/06 01:49:24;;;;;;;0.73;0.73;;;10.70;99.90;;;;;;4407642;32;20107;-61
2023/11/06 01:51:50;;;;;;;0.20;0.20;;;10.70;99.90;;;;;;4405545;32;20078;-61
2023/11/06 01:54:17;;;;;;;0.30;0.30;;;10.60;99.90;;;;;;4404016;32;20070;-61
2023/11/06 01:56:43;;;;;;;0.30;0.30;;;10.60;99.90;;;;;;4396514;32;20086;-61
2023/11/06 01:59:09;;;;;;;3.30;0.50;;;10.60;99.90;;;;;;4402625;32;20592;-60
2023/11/06 02:01:40;;;;;;;0.40;0.40;;;10.60;99.90;;;;;;4410129;32;20066;-61
2023/11/06 02:04:10;;;;;;;0.30;0.30;;;10.60;99.90;;;;;;4405628;32;20065;-61
2023/11/06 02:06:36;;;;;;;0.30;0.30;;;10.60;99.90;;;;;;4403393;32;20087;-59
2023/11/06 02:09:03;;;;;;;0.30;0.30;;;10.60;99.90;;;;;;4404229;32;21256;-60
2023/11/06 02:11:29;;;;;;;0.30;0.30;;;10.60;99.90;;;;;;4402511;32;20097;-61
2023/11/06 02:13:54;;;;;;;0.60;0.60;;;10.60;99.90;;;;;;4405579;32;20124;-59
2023/11/06 02:16:20;;;;;;;0.30;0.30;;;10.60;99.90;;;;;;4401787;32;20097;-60
2023/11/06 02:18:45;;;;;;;0.30;0.30;;;10.60;99.90;;;;;;4401341;32;20128;-60
2023/11/06 02:21:11;;;;;;;0.40;0.40;;;10.60;99.90;;;;;;4402573;32;20065;-61
2023/11/06 02:23:37;;;;;;;0.98;0.77;;;10.60;99.90;;;;;;4403525;32;20057;-59
2023/11/06 02:26:03;;;;;;;0.57;0.57;;;10.60;99.90;;;;;;4404197;32;20140;-58
2023/11/06 02:28:29;;;;;;;0.22;0.22;;;10.60;99.90;;;;;;4385992;32;20595;-61
2023/11/06 02:30:54;;;;;;;0.30;0.30;;;10.60;99.90;;;;;;4404978;32;20089;-60
2023/11/06 02:33:20;;;;;;;0.47;0.47;;;10.70;99.90;;;;;;4403301;32;20113;-59
2023/11/06 02:35:45;;;;;;;13.73;0.47;;;10.70;99.90;;;;;;4403289;32;20081;-60
2023/11/06 02:38:11;;;;;;;0.28;0.28;;;10.80;99.90;;;;;;4398663;32;20058;-58
2023/11/06 02:40:36;;;;;;;0.28;0.28;;;10.80;99.90;;;;;;4403858;32;20085;-60
2023/11/06 02:43:02;;;;;;;0.20;0.20;;;10.80;99.90;;;;;;4404580;32;20842;-59
2023/11/06 02:45:27;;;;;;;1.45;0.57;;;10.90;99.90;;;;;;4402740;32;20483;-61
2023/11/06 02:47:53;;;;;;;0.22;0.22;;;10.80;99.90;;;;;;4402764;32;20058;-60
2023/11/06 02:50:20;;;;;;;1.05;0.95;;;10.80;99.90;;;;;;4399982;32;20444;-60
2023/11/06 02:52:46;;;;;;;0.30;0.30;;;10.70;99.90;;;;;;4402274;32;20078;-60
2023/11/06 02:55:11;;;;;;;0.30;0.30;;;10.80;99.90;;;;;;4401311;32;20070;-60
2023/11/06 02:57:37;;;;;;;0.40;0.40;;;10.80;99.90;;;;;;4399462;32;20188;-61
2023/11/06 03:00:06;;;;;;;0.32;0.32;;;10.70;99.90;;;;;;4404741;32;20078;-60
2023/11/06 03:02:34;;;;;;;0.47;0.47;;;10.80;99.90;;;;;;4403860;32;20078;-61
2023/11/06 03:04:59;;;;;;;0.40;0.40;;;10.80;99.90;;;;;;4403763;32;20073;-60
2023/11/06 03:07:25;;;;;;;0.30;0.30;;;10.80;99.90;;;;;;4401979;32;20109;-61
2023/11/06 03:09:50;;;;;;;0.55;0.50;;;10.80;99.90;;;;;;4403357;32;20090;-60
2023/11/06 03:12:16;;;;;;;0.30;0.30;;;10.80;99.90;;;;;;4390287;32;20066;-59
2023/11/06 03:14:41;;;;;;;7.03;1.65;;;10.80;99.90;;;;;;4404121;32;20144;-60
2023/11/06 03:17:07;;;;;;;0.40;0.40;;;10.80;99.90;;;;;;4398522;32;20810;-60
2023/11/06 03:19:35;;;;;;;0.30;0.30;;;10.70;99.90;;;;;;4401955;32;20074;-60
2023/11/06 03:22:01;;;;;;;0.20;0.20;;;10.70;99.90;;;;;;4404233;32;20077;-61
2023/11/06 03:24:26;;;;;;;0.30;0.30;;;10.70;99.90;;;;;;4403523;32;20069;-63
2023/11/06 03:26:52;;;;;;;0.37;0.37;;;10.70;99.90;;;;;;4400504;32;20073;-61
2023/11/06 03:29:17;;;;;;;0.25;0.25;;;10.70;99.90;;;;;;4403138;32;20074;-61
2023/11/06 03:31:43;;;;;;;0.30;0.30;;;10.60;99.90;;;;;;4407113;32;20077;-61
2023/11/06 03:34:09;;;;;;;0.40;0.40;;;10.60;99.90;;;;;;4404898;32;20073;-59
2023/11/06 03:36:41;;;;;;;0.57;0.57;;;10.60;99.90;;;;;;4403646;32;20112;-61
2023/11/06 03:39:07;;;;;;;0.50;0.50;;;10.60;99.90;;;;;;4404404;32;20077;-60
2023/11/06 03:41:33;;;;;;;0.28;0.28;;;10.60;99.90;;;;;;4407465;32;20117;-61
2023/11/06 03:43:58;;;;;;;0.40;0.40;;;10.60;99.90;;;;;;4404224;32;20062;-60
2023/11/06 03:46:25;;;;;;;0.22;0.22;;;10.60;99.90;;;;;;4407883;32;20478;-59
2023/11/06 03:48:50;;;;;;;0.40;0.40;;;10.50;99.90;;;;;;4401455;32;20102;-61
2023/11/06 03:51:17;;;;;;;0.20;0.20;;;10.50;99.90;;;;;;4406064;32;20074;-60
2023/11/06 03:53:42;;;;;;;0.40;0.40;;;10.40;99.90;;;;;;4404171;32;20081;-58
2023/11/06 03:56:10;;;;;;;0.30;0.30;;;10.40;99.90;;;;;;4403655;32;20426;-61
2023/11/06 03:58:35;;;;;;;0.30;0.30;;;10.40;99.90;;;;;;4400101;32;20138;-60
2023/11/06 04:01:02;;;;;;;0.20;0.20;;;10.30;99.90;;;;;;4408356;32;20070;-61
2023/11/06 04:03:28;;;;;;;0.40;0.40;;;10.30;99.90;;;;;;4401563;32;20144;-60
2023/11/06 04:05:54;;;;;;;0.20;0.20;;;10.20;99.90;;;;;;4406946;32;20079;-60
2023/11/06 04:08:19;;;;;;;0.40;0.40;;;10.20;99.90;;;;;;4406267;32;20439;-60
2023/11/06 04:10:45;;;;;;;0.40;0.40;;;10.10;99.90;;;;;;4404044;32;20106;-61
2023/11/06 04:13:10;;;;;;;0.30;0.30;;;10.10;99.90;;;;;;4407316;32;20077;-61
2023/11/06 04:15:36;;;;;;;0.30;0.30;;;10.00;99.90;;;;;;4405056;32;20557;-61
2023/11/06 04:18:02;;;;;;;0.40;0.40;;;10.00;99.90;;;;;;4398163;32;20550;-60
2023/11/06 04:20:28;;;;;;;0.40;0.40;;;10.00;99.90;;;;;;4405958;32;20075;-60
2023/11/06 04:22:53;;;;;;;0.30;0.30;;;9.90;99.90;;;;;;4405195;32;20474;-61
2023/11/06 04:25:19;;;;;;;0.30;0.30;;;9.90;99.90;;;;;;4405628;32;20077;-60
2023/11/06 04:27:45;;;;;;;0.30;0.30;;;9.90;99.90;;;;;;4406741;32;20102;-61
2023/11/06 04:30:11;;;;;;;0.30;0.30;;;9.90;99.90;;;;;;4406630;32;20109;-60
2023/11/06 04:32:37;;;;;;;0.43;0.43;;;9.80;99.90;;;;;;4391596;32;20073;-58
2023/11/06 04:35:03;;;;;;;1.77;0.45;;;9.80;99.90;;;;;;4402580;32;20087;-60
2023/11/06 04:37:28;;;;;;;0.65;0.57;;;9.80;99.90;;;;;;4399714;32;21549;-61
2023/11/06 04:39:53;;;;;;;0.40;0.40;;;9.80;99.90;;;;;;4404176;32;20471;-60
2023/11/06 04:42:19;;;;;;;0.30;0.30;;;9.80;99.90;;;;;;4405945;32;20069;-61
2023/11/06 04:44:45;;;;;;;0.40;0.40;;;9.80;99.90;;;;;;4403046;32;20537;-59
2023/11/06 04:47:10;;;;;;;0.30;0.30;;;9.70;99.90;;;;;;4402005;32;20074;-60
2023/11/06 04:49:36;;;;;;;0.50;0.50;;;9.70;99.90;;;;;;4405749;32;20402;-60
2023/11/06 04:52:01;;;;;;;0.30;0.30;;;9.80;99.90;;;;;;4391105;32;20082;-60
2023/11/06 04:54:27;;;;;;;0.20;0.20;;;9.80;99.90;;;;;;4406247;32;20145;-60
2023/11/06 04:56:52;;;;;;;0.30;0.30;;;9.80;99.90;;;;;;4402811;32;20565;-60
2023/11/06 04:59:18;;;;;;;0.25;0.25;;;9.80;99.90;;;;;;4405699;32;20082;-59
2023/11/06 05:04:09;;;;;;;0.28;0.28;;;9.90;99.90;;;;;;4402991;32;20089;-60
2023/11/06 05:06:35;;;;;;;0.30;0.30;;;9.80;99.90;;;;;;4405785;32;20083;-60
2023/11/06 05:09:00;;;;;;;0.30;0.30;;;9.90;99.90;;;;;;4402725;32;20106;-61
2023/11/06 05:11:26;;;;;;;0.32;0.32;;;9.80;99.90;;;;;;4404356;32;20841;-60
2023/11/06 05:13:54;;;;;;;0.40;0.40;;;9.90;99.90;;;;;;4402183;32;20065;-61
2023/11/06 05:16:20;;;;;;;0.28;0.28;;;9.90;99.90;;;;;;4405411;32;20093;-60
2023/11/06 05:18:45;;;;;;;0.77;0.77;;;10.00;99.90;;;;;;4400896;32;20046;-61
2023/11/06 05:21:11;;;;;;;0.30;0.30;;;10.00;99.90;;;;;;4401670;32;20077;-60
2023/11/06 05:23:36;;;;;;;0.40;0.40;;;10.00;99.90;;;;;;4403852;32;20190;-61
2023/11/06 05:26:02;;;;;;;0.88;0.60;;;10.00;99.90;;;;;;4402107;32;20462;-61
2023/11/06 05:28:28;;;;;;;0.30;0.30;;;10.00;99.90;;;;;;4401492;32;20447;-61
2023/11/06 05:30:54;;;;;;;0.30;0.30;;;10.00;99.90;;;;;;4401821;32;20069;-61
2023/11/06 05:33:19;;;;;;;0.50;0.50;;;10.00;99.90;;;;;;4403210;32;20431;-59
2023/11/06 05:35:45;;;;;;;0.40;0.40;;;10.00;99.90;;;;;;4403991;32;20156;-61
2023/11/06 05:38:10;;;;;;;0.30;0.30;;;10.00;99.90;;;;;;4397792;32;20058;-60
2023/11/06 05:40:36;;;;;;;0.28;0.28;;;10.10;99.90;;;;;;4407401;32;20073;-59
2023/11/06 05:43:01;;;;;;;8.57;0.57;;;10.00;99.90;;;;;;4403603;32;20066;-61
2023/11/06 05:45:27;;;;;;;0.40;0.40;;;10.10;99.90;;;;;;4404735;32;20066;-61
2023/11/06 05:47:52;;;;;;;0.30;0.30;;;10.10;99.90;;;;;;4403146;32;20502;-60
2023/11/06 05:50:18;;;;;;;0.30;0.30;;;10.10;99.90;;;;;;4390056;32;20066;-61
2023/11/06 05:52:45;;;;;;;0.45;0.45;;;10.10;99.90;;;;;;4402819;32;20078;-61
2023/11/06 05:55:10;;;;;;;0.32;0.32;;;10.10;99.90;;;;;;4403024;32;20070;-60
2023/11/06 05:57:37;;;;;;;0.40;0.40;;;10.20;99.90;;;;;;4400015;32;20605;-61
2023/11/06 06:00:03;;;;;;;0.40;0.40;;;10.20;99.90;;;;;;4403148;32;20065;-59
2023/11/06 06:02:29;;;;;;;0.40;0.40;;;10.20;99.90;;;;;;4388526;32;20077;-60
2023/11/06 06:04:56;;;;;;;0.40;0.40;;;10.20;99.90;;;;;;4401237;32;20415;-61
2023/11/06 06:07:21;;;;;;;1.85;0.70;;;10.30;99.90;;;;;;4400288;32;20538;-58
2023/11/06 06:09:47;;;;;;;0.40;0.40;;;10.30;99.90;;;;;;4400399;32;20132;-60
2023/11/06 06:12:12;;;;;;;0.37;0.37;;;10.40;99.90;;;;;;4390308;32;20525;-60
2023/11/06 06:14:38;;;;;;;0.30;0.30;;;10.40;99.90;;;;;;4408678;32;20074;-60
2023/11/06 06:17:04;;;;;;;0.40;0.40;;;10.40;99.90;;;;;;4389882;32;20446;-58
2023/11/06 06:19:31;;;;;;;0.40;0.40;;;10.40;99.90;;;;;;4394330;32;20442;-60
2023/11/06 06:21:56;;;;;;;0.37;0.37;;;10.40;99.90;;;;;;4404467;32;20121;-60
2023/11/06 06:24:23;;;;;;;0.40;0.40;;;10.40;99.90;;;;;;4403136;32;20132;-61
2023/11/06 06:26:48;;;;;;;0.32;0.32;;;10.40;99.90;;;;;;4387565;32;20598;-60
2023/11/06 06:29:14;;;;;;;0.37;0.37;;;10.40;99.90;;;;;;4393383;32;20140;-60
2023/11/06 06:31:39;;;;;;;4.80;1.67;;;10.40;99.90;;;;;;4378917;32;20676;-60
2023/11/06 06:34:05;;;;;;;0.43;0.43;;;10.40;99.90;;;;;;4398767;32;20173;-62
2023/11/06 06:36:31;;;;;;;0.40;0.40;;;10.50;99.90;;;;;;4391913;32;20320;-61
2023/11/06 06:38:57;;;;;;;0.28;0.28;;;10.50;99.90;;;;;;4391603;32;20078;-62
2023/11/06 06:41:22;;;;;;;0.40;0.40;;;10.50;99.90;;;;;;4399345;32;20110;-61
2023/11/06 06:43:49;;;;;;;0.30;0.30;;;10.50;99.90;;;;;;4387175;32;20085;-62
2023/11/06 06:46:15;;;;;;;0.40;0.40;;;10.50;99.90;;;;;;4394325;32;20133;-61
2023/11/06 06:48:40;;;;;;;0.30;0.30;;;10.60;99.90;;;;;;4393576;32;20605;-61
2023/11/06 06:51:06;;;;;;;0.30;0.30;;;10.60;99.90;;;;;;4388828;32;20095;-60
2023/11/06 06:53:34;;;;;;;0.40;0.40;;;10.60;99.90;;;;;;4383930;32;21213;-60
2023/11/06 06:55:59;;;;;;;0.40;0.40;;;10.60;99.90;;;;;;4376268;32;20517;-62
2023/11/06 06:58:26;;;;;;;1.45;0.77;;;10.60;99.90;;;;;;4365826;32;20116;-60
2023/11/06 07:00:52;;;;;;;0.30;0.30;;;10.60;99.90;;;;;;4370745;32;20613;-62
2023/11/06 07:03:18;;;;;;;0.62;0.60;;;10.60;99.90;;;;;;4339840;32;21535;-59
2023/11/06 07:05:43;;;;;;;0.37;0.37;;;10.60;99.90;;;;;;4362896;32;20556;-60
2023/11/06 07:08:09;;;;;;;0.52;0.52;;;10.60;99.90;;;;;;4360306;32;20639;-62
2023/11/06 07:10:35;;;;;;;2.83;1.02;;;10.70;99.90;;;;;;4363992;32;20635;-62
2023/11/06 07:13:00;;;;;;;0.30;0.30;;;10.80;99.90;;;;;;4368093;32;21058;-61
2023/11/06 07:15:25;;;;;;;0.30;0.30;;;10.80;99.90;;;;;;4351765;32;20141;-62
2023/11/06 07:17:52;;;;;;;0.20;0.20;;;10.90;99.90;;;;;;4358427;32;20568;-62
2023/11/06 07:20:18;;;;;;;0.55;0.50;;;11.00;99.90;;;;;;4357713;32;20633;-63
2023/11/06 07:22:43;;;;;;;0.40;0.40;;;11.10;99.90;;;;;;4369775;32;20101;-62
2023/11/06 07:25:09;;;;;;;0.20;0.20;;;11.10;99.90;;;;;;4369981;32;20102;-63
2023/11/06 07:27:35;;;;;;;0.30;0.30;;;11.10;99.90;;;;;;4357249;32;20085;-63
2023/11/06 07:30:00;;;;;;;0.40;0.40;;;11.10;99.90;;;;;;4369656;32;20459;-62
2023/11/06 07:32:26;;;;;;;0.35;0.35;;;11.10;99.90;;;;;;4373386;32;20261;-63
2023/11/06 07:34:52;;;;;;;0.30;0.30;;;11.10;99.90;;;;;;4370434;32;20581;-62
2023/11/06 07:37:17;;;;;;;0.30;0.30;;;11.10;99.90;;;;;;4366874;32;20133;-63
2023/11/06 07:39:43;;;;;;;0.30;0.30;;;11.10;99.90;;;;;;4362077;32;20148;-62
2023/11/06 07:42:11;;;;;;;0.30;0.30;;;11.20;99.90;;;;;;4375387;32;20089;-62
2023/11/06 07:44:38;;;;;;;0.55;0.55;;;11.20;99.90;;;;;;4372781;32;20090;-62
2023/11/06 07:47:05;;;;;;;0.30;0.30;;;11.20;99.90;;;;;;4359724;32;20110;-62
2023/11/06 07:49:31;;;;;;;0.30;0.30;;;11.20;99.90;;;;;;4335684;32;20691;-62
2023/11/06 07:51:57;;;;;;;0.25;0.25;;;11.30;99.90;;;;;;4365563;32;20101;-63
2023/11/06 07:54:22;;;;;;;0.35;0.35;;;11.30;99.90;;;;;;4363087;32;20102;-62
2023/11/06 07:56:48;;;;;;;0.30;0.30;;;11.40;99.90;;;;;;4360969;32;20160;-62
2023/11/06 07:59:14;;;;;;;0.37;0.37;;;11.40;99.90;;;;;;4362245;32;20102;-62
2023/11/06 08:01:39;;;;;;;0.98;0.75;;;11.30;99.90;;;;;;4370084;32;20216;-62
2023/11/06 08:04:07;;;;;;;0.98;0.70;;;11.30;99.90;;;;;;4366551;32;20185;-62
2023/11/06 08:06:33;;;;;;;0.40;0.40;;;11.20;99.90;;;;;;4368134;32;20993;-63
2023/11/06 08:08:59;;;;;;;0.32;0.32;;;11.30;99.90;;;;;;4356846;32;20309;-61
2023/11/06 08:11:25;;;;;;;1.35;1.02;;;11.30;99.90;;;;;;4354195;32;20093;-62
2023/11/06 08:13:51;;;;;;;0.30;0.30;;;11.40;99.90;;;;;;4366438;32;20117;-63
2023/11/06 08:16:16;;;;;;;0.35;0.35;;;11.50;99.90;;;;;;4356759;32;20085;-62
2023/11/06 08:18:42;;;;;;;0.40;0.40;;;11.60;99.90;;;;;;4353697;32;20564;-62
2023/11/06 08:21:09;;;;;;;0.25;0.25;;;11.60;99.90;;;;;;4360954;32;22290;-60
2023/11/06 08:23:35;;;;;;;8.90;0.70;;;11.60;99.90;;;;;;4353356;32;20356;-63
2023/11/06 08:26:00;;;;;;;0.30;0.30;;;11.70;99.90;;;;;;4365375;32;20417;-62
2023/11/06 08:28:26;;;;;;;0.40;0.40;;;11.80;99.90;;;;;;4372092;32;20086;-61
2023/11/06 08:30:52;;;;;;;0.30;0.30;;;11.70;99.90;;;;;;4366857;32;20799;-61
2023/11/06 08:33:18;;;;;;;1.33;1.02;;;11.70;99.90;;;;;;4367269;32;20168;-61
2023/11/06 08:35:45;;;;;;;0.30;0.30;;;11.70;99.90;;;;;;4367595;32;20085;-61
2023/11/06 08:38:11;;;;;;;0.50;0.50;;;11.80;99.90;;;;;;4372310;32;20089;-61
2023/11/06 08:40:37;;;;;;;0.37;0.37;;;11.90;99.90;;;;;;4379491;32;20107;-61
2023/11/06 08:43:04;;;;;;;0.40;0.40;;;11.90;99.90;;;;;;4390112;32;20098;-62
2023/11/06 08:45:29;;;;;;;0.30;0.30;;;12.00;99.90;;;;;;4375736;32;20086;-61
2023/11/06 08:47:55;;;;;;;0.30;0.30;;;12.00;99.90;;;;;;4371824;32;20184;-61
2023/11/06 08:50:21;;;;;;;0.40;0.40;;;12.00;99.90;;;;;;4362739;32;20636;-61
2023/11/06 08:52:47;;;;;;;0.98;0.68;;;12.10;99.90;;;;;;4365724;32;20687;-62
2023/11/06 08:55:13;;;;;;;0.40;0.40;;;12.00;99.90;;;;;;4370209;32;20121;-61
2023/11/06 08:57:38;;;;;;;6.03;0.68;;;12.00;99.90;;;;;;4360305;32;20104;-61
2023/11/06 09:00:08;;;;;;;0.30;0.30;;;12.00;99.90;;;;;;4374183;32;20216;-59
2023/11/06 09:02:34;;;;;;;0.40;0.40;;;12.00;99.90;;;;;;4365418;32;20459;-61
2023/11/06 09:05:00;;;;;;;0.35;0.35;;;11.90;99.90;;;;;;4381781;32;20085;-61
2023/11/06 09:07:26;;;;;;;0.30;0.30;;;11.90;99.90;;;;;;4384996;32;20247;-62
2023/11/06 09:09:52;;;;;;;0.30;0.30;;;11.90;99.90;;;;;;4380883;32;20101;-61
2023/11/06 09:12:18;;;;;;;0.20;0.20;;;11.90;99.90;;;;;;4379044;32;20107;-61
2023/11/06 09:14:43;;;;;;;0.30;0.30;;;11.90;99.90;;;;;;4359453;32;20153;-61
2023/11/06 09:17:09;;;;;;;0.50;0.50;;;11.90;99.90;;;;;;4371902;32;20154;-61
2023/11/06 09:19:34;;;;;;;0.40;0.40;;;11.90;99.90;;;;;;4383741;32;20097;-61
2023/11/06 09:22:00;;;;;;;0.40;0.40;;;11.90;99.90;;;;;;4377941;32;20205;-60
2023/11/06 09:24:28;;;;;;;0.40;0.40;;;11.90;99.90;;;;;;4377157;32;20573;-58
2023/11/06 09:26:54;;;;;;;1.25;0.90;;;12.00;99.90;;;;;;4374810;32;20109;-61
2023/11/06 09:29:20;;;;;;;0.40;0.40;;;12.00;99.90;;;;;;4366666;32;23020;-59
2023/11/06 09:31:47;;;;;;;0.50;0.50;;;12.00;99.90;;;;;;4370097;32;20090;-61
2023/11/06 09:34:12;;;;;;;0.40;0.40;;;12.00;99.90;;;;;;4367742;32;20109;-61
2023/11/06 09:36:38;;;;;;;1.10;0.85;;;12.00;99.90;;;;;;4366621;32;20433;-61
2023/11/06 09:39:06;;;;;;;0.88;0.88;;;12.00;99.90;;;;;;4368027;32;20320;-61
2023/11/06 09:41:32;;;;;;;0.47;0.47;;;12.00;99.90;;;;;;4383286;32;21309;-61
2023/11/06 09:43:58;;;;;;;0.30;0.30;;;12.10;99.90;;;;;;4376525;32;20494;-61
2023/11/06 09:46:25;;;;;;;0.40;0.40;;;12.10;99.90;;;;;;4364232;32;20098;-61
2023/11/06 09:48:53;;;;;;;0.52;0.50;;;12.10;99.90;;;;;;4368121;32;20436;-60
2023/11/06 09:51:26;;;;;;;0.40;0.40;;;12.10;99.90;;;;;;4372417;32;20114;-59
2023/11/06 09:53:53;;;;;;;0.30;0.30;;;12.20;99.90;;;;;;4375796;32;21464;-61
2023/11/06 09:56:19;;;;;;;0.65;0.52;;;12.20;99.90;;;;;;4370292;32;20644;-61
2023/11/06 09:58:45;;;;;;;0.20;0.20;;;12.30;99.90;;;;;;4361429;32;21427;-61
2023/11/06 10:01:12;;;;;;;0.30;0.30;;;12.30;99.90;;;;;;4365150;32;20996;-61
2023/11/06 10:03:38;;;;;;;0.60;0.60;;;12.40;99.90;;;;;;4373297;32;20517;-60
2023/11/06 10:06:05;;;;;;;0.40;0.40;;;12.40;99.90;;;;;;4361142;32;20463;-61
2023/11/06 10:08:32;;;;;;;0.50;0.50;;;12.30;99.90;;;;;;4365595;32;20101;-60
2023/11/06 10:10:59;;;;;;;0.30;0.30;;;12.40;99.90;;;;;;4366546;32;20109;-61
2023/11/06 10:13:25;;;;;;;4.18;1.30;;;12.40;99.90;;;;;;4358803;32;20718;-62
2023/11/06 10:15:51;;;;;;;0.55;0.50;;;12.40;99.90;;;;;;4361074;32;20082;-61
2023/11/06 10:18:19;;;;;;;0.40;0.40;;;12.50;99.90;;;;;;4341028;32;21030;-60
2023/11/06 10:20:47;;;;;;;0.40;0.40;;;12.50;99.90;;;;;;4360946;32;20695;-61
2023/11/06 10:23:32;;;;;;;0.40;0.40;;;12.60;99.90;;;;;;4356678;32;20234;-63
2023/11/06 10:26:10;;;;;;;0.30;0.30;;;12.80;99.90;;;;;;4341105;32;20424;-61
2023/11/06 10:28:37;;;;;;;0.40;0.40;;;12.90;99.90;;;;;;4357403;32;20580;-61
2023/11/06 10:31:03;;;;;;;0.40;0.40;;;13.00;99.90;;;;;;4358194;32;20093;-61
2023/11/06 10:33:29;;;;;;;0.40;0.40;;;13.10;99.90;;;;;;4360011;32;20117;-62
2023/11/06 10:35:57;;;;;;;0.73;0.57;;;13.20;99.90;;;;;;4369252;32;20209;-61
2023/11/06 10:38:39;;;;;;;0.40;0.40;;;13.30;99.90;;;;;;4370433;32;20140;-61
2023/11/06 10:41:28;;;;;;;1.20;1.12;;;13.20;99.90;;;;;;4383430;32;20528;-61
2023/11/06 10:43:59;;;;;;;0.80;0.80;;;13.20;99.90;;;;;;4359319;32;20119;-61
2023/11/06 10:46:31;;;;;;;0.40;0.40;;;13.10;99.90;;;;;;4378446;32;21566;-61
2023/11/06 10:49:21;;;;;;;2.83;0.60;;;13.10;99.90;;;;;;4369674;32;20572;-60
2023/11/06 10:51:48;;;;;;;0.68;0.60;;;13.00;99.90;;;;;;4354425;32;20085;-59
2023/11/06 10:54:15;;;;;;;0.30;0.30;;;12.90;99.90;;;;;;4368606;32;20092;-61
2023/11/06 10:56:42;;;;;;;0.32;0.32;;;12.90;99.90;;;;;;4362219;32;20120;-60
2023/11/06 10:59:08;;;;;;;0.37;0.37;;;13.00;99.90;;;;;;4368636;32;20363;-61
2023/11/06 11:01:36;;;;;;;0.40;0.40;;;13.00;99.90;;;;;;4378801;32;20699;-62
2023/11/06 11:04:04;;;;;;;0.37;0.37;;;12.90;99.90;;;;;;4354096;32;20129;-61
2023/11/06 11:06:32;;;;;;;0.40;0.40;;;12.90;99.90;;;;;;4367133;32;20089;-61
2023/11/06 11:08:58;;;;;;;1.75;1.15;;;13.10;99.90;;;;;;4375823;32;20107;-61
2023/11/06 11:11:26;;;;;;;6.18;0.60;;;13.10;99.90;;;;;;4376574;32;20526;-59
2023/11/06 11:13:52;;;;;;;0.50;0.50;;;13.00;99.90;;;;;;4391129;32;20085;-61
2023/11/06 11:16:37;;;;;;;0.30;0.30;;;13.00;99.90;;;;;;4386195;32;21787;-62
2023/11/06 11:19:21;;;;;;;1.45;0.50;;;13.10;99.90;;;;;;4359195;32;20105;-60
2023/11/06 11:22:15;;;;;;;0.40;0.40;;;13.20;99.90;;;;;;4369563;32;20110;-61
2023/11/06 11:24:45;;;;;;;0.32;0.32;;;13.50;99.90;;;;;;4374303;32;20069;-61
2023/11/06 11:27:16;;;;;;;0.40;0.40;;;13.70;99.90;;;;;;4365494;32;20126;-61
2023/11/06 11:30:00;;;;;;;0.40;0.40;;;14.10;99.90;;;;;;4368001;32;20097;-60
2023/11/06 11:32:37;;;;;;;0.40;0.40;;;14.60;99.90;;;;;;4379700;32;20714;-63
2023/11/06 11:35:25;;;;;;;0.40;0.40;;;15.10;99.90;;;;;;4378843;32;20641;-62
2023/11/06 11:37:58;;;;;;;0.40;0.40;;;15.00;99.90;;;;;;4370486;32;20105;-61
2023/11/06 11:40:45;;;;;;;0.43;0.43;;;14.60;99.90;;;;;;4370390;32;20098;-62
2023/11/06 11:43:33;;;;;;;0.40;0.40;;;14.20;99.90;;;;;;4373480;32;20106;-61
2023/11/06 11:45:58;;;;;;;0.32;0.32;;;13.80;99.90;;;;;;4381923;32;20542;-60
2023/11/06 11:48:51;;;;;;;0.30;0.30;;;13.50;99.90;;;;;;4376297;32;20425;-62
2023/11/06 11:51:46;;;;;;;12.30;0.73;;;13.50;99.90;;;;;;4349162;32;123946;-62
2023/11/06 11:54:30;;;;;;;0.30;0.30;;;13.70;99.90;;;;;;4359236;32;20378;-63
2023/11/06 11:56:57;;;;;;;0.35;0.35;;;13.90;99.90;;;;;;4337008;32;20090;-62
2023/11/06 11:59:25;;;;;;;0.40;0.40;;;13.80;99.90;;;;;;4364379;32;20077;-62
2023/11/06 12:01:51;;;;;;;0.32;0.32;;;13.80;99.90;;;;;;4372441;32;20562;-63
2023/11/06 12:04:18;;;;;;;0.82;0.82;;;13.80;99.90;;;;;;4355809;32;22672;-63
2023/11/06 12:06:44;;;;;;;0.50;0.50;;;13.80;99.90;;;;;;4374798;32;20082;-63
2023/11/06 12:09:09;;;;;;;0.40;0.40;;;13.70;99.90;;;;;;4367226;32;20242;-63
2023/11/06 12:11:35;;;;;;;1.70;0.70;;;13.60;99.90;;;;;;4363866;32;20136;-62
2023/11/06 12:14:02;;;;;;;0.37;0.37;;;13.50;99.90;;;;;;4359377;32;22542;-62
2023/11/06 12:16:29;;;;;;;9.80;1.02;;;13.40;99.90;;;;;;4377960;32;20863;-63
2023/11/06 12:18:56;;;;;;;0.35;0.35;;;13.30;99.90;;;;;;4375489;32;20070;-63
2023/11/06 12:21:22;;;;;;;0.30;0.30;;;13.20;99.90;;;;;;4374724;32;20101;-63
2023/11/06 12:23:48;;;;;;;0.30;0.30;;;13.20;99.90;;;;;;4376417;32;20490;-63
2023/11/06 12:26:16;;;;;;;0.30;0.30;;;13.20;99.90;;;;;;4365844;32;20139;-64
2023/11/06 12:28:47;;;;;;;8.88;2.15;;;13.10;99.90;;;;;;4366808;32;20703;-63
2023/11/06 12:31:13;;;;;;;0.30;0.30;;;13.10;99.90;;;;;;4352434;32;20147;-64
2023/11/06 12:33:39;;;;;;;0.30;0.30;;;13.10;99.90;;;;;;4367325;32;20081;-63
2023/11/06 12:36:06;;;;;;;0.30;0.30;;;13.10;99.90;;;;;;4368292;32;20226;-63
2023/11/06 12:38:35;;;;;;;0.30;0.30;;;13.00;99.90;;;;;;4362827;32;20119;-63
2023/11/06 12:41:04;;;;;;;0.40;0.40;;;13.00;99.90;;;;;;4355309;32;21610;-64
2023/11/06 12:43:30;;;;;;;0.30;0.30;;;13.00;99.90;;;;;;4349768;32;20624;-63
2023/11/06 12:45:58;;;;;;;0.40;0.40;;;13.00;99.90;;;;;;4328579;32;20180;-64
2023/11/06 12:48:28;;;;;;;0.93;0.45;;;13.10;99.90;;;;;;4362559;32;20443;-64